createdAt,value
2019-05-25T00:00:13.853Z,8.53
2019-05-25T00:01:19.292Z,8.27
2019-05-25T00:02:24.191Z,9.17
2019-05-25T00:03:29.723Z,8.03
2019-05-25T00:04:34.655Z,8.97
2019-05-25T00:05:39.967Z,7.77
2019-05-25T00:06:45.384Z,7.70
2019-05-25T00:07:50.843Z,7.80
2019-05-25T00:08:55.620Z,7.53
2019-05-25T00:10:00.976Z,6.80
2019-05-25T00:11:05.860Z,6.90
2019-05-25T00:12:11.301Z,6.63
2019-05-25T00:13:16.620Z,7.33
2019-05-25T00:14:22.121Z,6.60
2019-05-25T00:15:27.063Z,6.80
2019-05-25T00:16:32.433Z,6.10
2019-05-25T00:17:37.230Z,5.77
2019-05-25T00:18:42.618Z,5.40
2019-05-25T00:19:47.584Z,5.07
2019-05-25T00:20:53.018Z,5.53
2019-05-25T00:21:58.005Z,5.67
2019-05-25T00:23:03.404Z,5.47
2019-05-25T00:24:12.170Z,4.93
2019-05-25T00:25:15.316Z,4.70
2019-05-25T00:26:20.138Z,4.40
2019-05-25T00:27:25.520Z,4.90
2019-05-25T00:28:30.273Z,4.17
2019-05-25T00:29:35.670Z,4.87
2019-05-25T00:30:40.540Z,4.30
2019-05-25T00:31:45.901Z,4.57
2019-05-25T00:32:50.743Z,3.83
2019-05-25T00:33:56.097Z,4.50
2019-05-25T00:35:00.877Z,4.03
2019-05-25T00:36:06.395Z,4.33
2019-05-25T00:37:11.449Z,4.20
2019-05-25T00:38:17.067Z,4.30
2019-05-25T00:39:21.930Z,4.20
2019-05-25T00:40:27.371Z,4.30
2019-05-25T00:41:32.221Z,4.03
2019-05-25T00:42:37.584Z,4.13
2019-05-25T00:43:42.745Z,4.00
2019-05-25T00:44:48.119Z,3.93
2019-05-25T00:45:53.029Z,3.97
2019-05-25T00:46:58.376Z,4.03
2019-05-25T00:48:03.182Z,3.80
2019-05-25T00:49:08.817Z,3.83
2019-05-25T00:50:14.343Z,3.80
2019-05-25T00:51:19.920Z,3.90
2019-05-25T00:52:24.864Z,4.13
2019-05-25T00:53:30.337Z,3.83
2019-05-25T00:54:35.264Z,3.90
2019-05-25T00:55:40.863Z,3.90
2019-05-25T00:56:45.740Z,4.03
2019-05-25T00:57:51.183Z,3.90
2019-05-25T00:58:56.271Z,4.07
2019-05-25T01:00:01.664Z,4.00
2019-05-25T01:01:06.682Z,3.87
2019-05-25T01:02:12.140Z,3.70
2019-05-25T01:03:17.118Z,4.33
2019-05-25T01:04:22.490Z,4.10
2019-05-25T01:05:27.325Z,3.80
2019-05-25T01:06:33.117Z,4.00
2019-05-25T01:07:38.023Z,3.87
2019-05-25T01:08:43.396Z,4.20
2019-05-25T01:09:48.524Z,3.83
2019-05-25T01:10:53.895Z,4.07
2019-05-25T01:11:58.736Z,3.80
2019-05-25T01:13:04.345Z,4.00
2019-05-25T01:14:09.334Z,4.10
2019-05-25T01:15:18.556Z,4.57
2019-05-25T01:16:23.359Z,3.93
2019-05-25T01:17:28.770Z,3.90
2019-05-25T01:18:33.561Z,3.90
2019-05-25T01:19:38.914Z,4.33
2019-05-25T01:20:43.748Z,4.20
2019-05-25T01:21:49.399Z,3.80
2019-05-25T01:22:54.302Z,4.47
2019-05-25T01:23:59.774Z,4.40
2019-05-25T01:25:05.212Z,3.90
2019-05-25T01:26:10.592Z,4.40
2019-05-25T01:27:15.622Z,4.27
2019-05-25T01:28:21.305Z,4.10
2019-05-25T01:29:26.266Z,3.73
2019-05-25T01:30:31.713Z,3.93
2019-05-25T01:31:36.452Z,4.03
2019-05-25T01:32:42.092Z,3.80
2019-05-25T01:33:47.100Z,4.53
2019-05-25T01:34:52.443Z,4.33
2019-05-25T01:35:57.245Z,3.70
2019-05-25T01:37:02.764Z,4.20
2019-05-25T01:38:07.687Z,4.20
2019-05-25T01:39:13.296Z,4.50
2019-05-25T01:40:18.555Z,4.27
2019-05-25T01:41:24.224Z,4.23
2019-05-25T01:42:29.130Z,4.00
2019-05-25T01:43:34.802Z,4.80
2019-05-25T01:44:39.575Z,4.73
2019-05-25T01:45:44.884Z,4.10
2019-05-25T01:46:49.862Z,4.33
2019-05-25T01:47:55.332Z,4.10
2019-05-25T01:49:00.136Z,4.00
2019-05-25T01:50:05.653Z,4.40
2019-05-25T01:51:10.427Z,4.13
2019-05-25T01:52:15.802Z,4.03
2019-05-25T01:53:20.589Z,5.07
2019-05-25T01:54:26.052Z,4.50
2019-05-25T01:55:30.904Z,4.33
2019-05-25T01:56:36.418Z,4.00
2019-05-25T01:57:41.372Z,4.03
2019-05-25T01:58:46.882Z,4.27
2019-05-25T01:59:51.761Z,4.93
2019-05-25T02:00:57.169Z,4.53
2019-05-25T02:02:02.023Z,4.40
2019-05-25T02:03:07.500Z,4.93
2019-05-25T02:04:12.268Z,4.50
2019-05-25T02:05:17.769Z,4.67
2019-05-25T02:06:22.528Z,4.97
2019-05-25T02:07:28.007Z,4.60
2019-05-25T02:08:32.820Z,4.77
2019-05-25T02:09:38.201Z,5.00
2019-05-25T02:10:43.000Z,5.00
2019-05-25T02:11:48.376Z,5.03
2019-05-25T02:12:53.215Z,4.87
2019-05-25T02:13:58.712Z,5.17
2019-05-25T02:15:03.563Z,5.00
2019-05-25T02:16:09.124Z,5.47
2019-05-25T02:17:14.018Z,5.40
2019-05-25T02:18:19.492Z,5.93
2019-05-25T02:19:24.301Z,6.30
2019-05-25T02:20:29.608Z,5.70
2019-05-25T02:21:34.401Z,5.97
2019-05-25T02:22:40.061Z,6.43
2019-05-25T02:23:45.035Z,6.60
2019-05-25T02:24:50.371Z,5.93
2019-05-25T02:25:55.182Z,6.47
2019-05-25T02:27:00.553Z,6.77
2019-05-25T02:28:05.651Z,6.40
2019-05-25T02:29:11.368Z,6.40
2019-05-25T02:30:18.195Z,6.50
2019-05-25T02:31:24.740Z,6.50
2019-05-25T02:32:29.486Z,6.97
2019-05-25T02:33:34.945Z,6.60
2019-05-25T02:34:39.757Z,6.90
2019-05-25T02:35:45.104Z,6.30
2019-05-25T02:36:49.880Z,7.00
2019-05-25T02:37:55.192Z,6.40
2019-05-25T02:39:00.013Z,6.80
2019-05-25T02:40:06.547Z,6.80
2019-05-25T02:41:11.504Z,7.10
2019-05-25T02:42:16.987Z,7.20
2019-05-25T02:43:21.783Z,7.30
2019-05-25T02:44:27.270Z,6.87
2019-05-25T02:45:32.207Z,6.63
2019-05-25T02:46:37.617Z,7.40
2019-05-25T02:47:42.389Z,7.10
2019-05-25T02:48:47.967Z,6.90
2019-05-25T02:49:52.796Z,7.50
2019-05-25T02:50:58.335Z,7.30
2019-05-25T02:52:03.156Z,7.00
2019-05-25T02:53:08.678Z,7.00
2019-05-25T02:54:13.529Z,7.37
2019-05-25T02:55:32.960Z,6.87
2019-05-25T02:56:25.755Z,7.30
2019-05-25T02:57:31.127Z,7.73
2019-05-25T02:58:35.982Z,7.13
2019-05-25T02:59:41.517Z,7.83
2019-05-25T03:00:46.500Z,8.07
2019-05-25T03:01:52.147Z,8.53
2019-05-25T03:02:57.176Z,8.47
2019-05-25T03:04:03.207Z,7.37
2019-05-25T03:05:08.283Z,7.60
2019-05-25T03:06:14.201Z,8.00
2019-05-25T03:07:20.297Z,8.30
2019-05-25T03:08:25.704Z,8.20
2019-05-25T03:09:33.096Z,7.37
2019-05-25T03:10:38.559Z,8.03
2019-05-25T03:11:43.839Z,7.70
2019-05-25T03:12:49.191Z,7.67
2019-05-25T03:13:54.190Z,8.13
2019-05-25T03:14:59.623Z,6.77
2019-05-25T03:16:04.537Z,6.97
2019-05-25T03:17:09.977Z,7.03
2019-05-25T03:18:14.736Z,7.43
2019-05-25T03:19:20.127Z,8.43
2019-05-25T03:20:24.876Z,7.77
2019-05-25T03:21:30.750Z,8.33
2019-05-25T03:22:35.486Z,8.03
2019-05-25T03:23:40.883Z,8.37
2019-05-25T03:24:45.672Z,8.60
2019-05-25T03:25:51.031Z,8.37
2019-05-25T03:26:55.812Z,8.17
2019-05-25T03:28:01.312Z,9.17
2019-05-25T03:29:06.104Z,8.60
2019-05-25T03:30:12.136Z,8.53
2019-05-25T03:31:17.097Z,8.73
2019-05-25T03:32:22.458Z,8.67
2019-05-25T03:33:27.283Z,8.90
2019-05-25T03:34:32.805Z,8.97
2019-05-25T03:35:37.550Z,8.37
2019-05-25T03:36:42.952Z,8.40
2019-05-25T03:37:47.729Z,8.23
2019-05-25T03:38:53.147Z,8.40
2019-05-25T03:39:58.136Z,8.60
2019-05-25T03:41:03.578Z,8.97
2019-05-25T03:42:08.372Z,8.27
2019-05-25T03:43:13.747Z,7.83
2019-05-25T03:44:18.560Z,8.27
2019-05-25T03:45:23.984Z,8.07
2019-05-25T03:46:28.760Z,7.73
2019-05-25T03:47:34.174Z,7.97
2019-05-25T03:48:39.140Z,7.80
2019-05-25T03:49:44.708Z,7.40
2019-05-25T03:50:49.520Z,7.63
2019-05-25T03:51:55.715Z,7.80
2019-05-25T03:53:00.818Z,7.33
2019-05-25T03:54:06.574Z,7.00
2019-05-25T03:55:11.611Z,7.37
2019-05-25T03:56:17.583Z,7.70
2019-05-25T03:57:22.612Z,7.50
2019-05-25T03:58:28.104Z,7.27
2019-05-25T03:59:34.056Z,7.87
2019-05-25T04:00:40.525Z,6.63
2019-05-25T04:01:45.569Z,7.23
2019-05-25T04:02:51.739Z,6.10
2019-05-25T04:03:56.752Z,5.60
2019-05-25T04:05:02.764Z,6.13
2019-05-25T04:06:07.805Z,5.73
2019-05-25T04:07:13.308Z,5.70
2019-05-25T04:08:18.219Z,5.40
2019-05-25T04:09:23.838Z,5.50
2019-05-25T04:10:28.919Z,5.73
2019-05-25T04:11:34.446Z,5.63
2019-05-25T04:12:39.347Z,5.20
2019-05-25T04:13:44.964Z,5.53
2019-05-25T04:14:50.061Z,4.63
2019-05-25T04:15:55.756Z,4.70
2019-05-25T04:17:00.659Z,4.80
2019-05-25T04:18:06.302Z,4.60
2019-05-25T04:19:11.171Z,4.90
2019-05-25T04:20:16.938Z,4.83
2019-05-25T04:21:22.403Z,4.53
2019-05-25T04:22:27.878Z,4.77
2019-05-25T04:23:32.840Z,4.60
2019-05-25T04:24:38.371Z,4.43
2019-05-25T04:25:43.350Z,5.30
2019-05-25T04:26:49.492Z,4.87
2019-05-25T04:27:55.040Z,4.80
2019-05-25T04:29:00.680Z,4.60
2019-05-25T04:30:06.669Z,4.67
2019-05-25T04:31:12.717Z,4.33
2019-05-25T04:32:17.643Z,4.23
2019-05-25T04:33:23.287Z,4.20
2019-05-25T04:34:29.565Z,4.40
2019-05-25T04:35:35.181Z,4.40
2019-05-25T04:36:40.217Z,5.37
2019-05-25T04:37:45.704Z,4.93
2019-05-25T04:38:51.256Z,4.73
2019-05-25T04:39:56.837Z,4.07
2019-05-25T04:41:01.746Z,4.10
2019-05-25T04:42:07.390Z,3.93
2019-05-25T04:43:12.401Z,4.33
2019-05-25T04:44:18.060Z,3.80
2019-05-25T04:45:23.662Z,4.07
2019-05-25T04:46:29.206Z,4.00
2019-05-25T04:47:34.650Z,3.73
2019-05-25T04:48:40.378Z,3.87
2019-05-25T04:49:45.361Z,3.37
2019-05-25T04:50:50.887Z,3.10
2019-05-25T04:51:55.931Z,3.30
2019-05-25T04:53:01.429Z,2.80
2019-05-25T04:54:06.792Z,3.00
2019-05-25T04:55:12.676Z,3.23
2019-05-25T04:56:17.700Z,3.10
2019-05-25T04:57:23.724Z,2.90
2019-05-25T04:58:28.827Z,3.00
2019-05-25T04:59:34.459Z,4.03
2019-05-25T05:00:39.601Z,2.60
2019-05-25T05:01:45.400Z,2.80
2019-05-25T05:02:50.405Z,3.03
2019-05-25T05:03:55.928Z,3.10
2019-05-25T05:05:01.535Z,3.33
2019-05-25T05:06:07.482Z,2.70
2019-05-25T05:07:13.064Z,3.37
2019-05-25T05:08:18.769Z,2.90
2019-05-25T05:09:23.730Z,2.73
2019-05-25T05:10:29.844Z,2.77
2019-05-25T05:11:34.826Z,3.00
2019-05-25T05:12:40.554Z,2.67
2019-05-25T05:13:46.869Z,2.80
2019-05-25T05:14:56.258Z,2.43
2019-05-25T05:15:59.883Z,2.87
2019-05-25T05:17:05.981Z,3.20
2019-05-25T05:18:11.619Z,2.90
2019-05-25T05:19:17.642Z,2.60
2019-05-25T05:20:23.323Z,3.00
2019-05-25T05:21:28.949Z,2.87
2019-05-25T05:22:33.882Z,2.60
2019-05-25T05:23:39.399Z,2.80
2019-05-25T05:24:44.476Z,2.43
2019-05-25T05:25:49.996Z,2.13
2019-05-25T05:26:56.459Z,2.60
2019-05-25T05:28:02.332Z,2.87
2019-05-25T05:29:08.048Z,2.20
2019-05-25T05:30:13.778Z,2.37
2019-05-25T05:31:23.521Z,2.60
2019-05-25T05:32:27.998Z,2.30
2019-05-25T05:33:33.959Z,2.63
2019-05-25T05:34:39.485Z,2.17
2019-05-25T05:35:45.151Z,2.80
2019-05-25T05:36:54.889Z,2.20
2019-05-25T05:38:03.007Z,2.40
2019-05-25T05:39:09.928Z,2.40
2019-05-25T05:40:16.334Z,2.07
2019-05-25T05:41:25.144Z,2.30
2019-05-25T05:42:33.455Z,2.40
2019-05-25T05:43:40.922Z,2.40
2019-05-25T05:44:48.191Z,2.07
2019-05-25T05:45:55.283Z,2.50
2019-05-25T05:47:03.287Z,2.20
2019-05-25T05:48:11.474Z,2.50
2019-05-25T05:49:16.942Z,2.70
2019-05-25T05:50:23.162Z,2.47
2019-05-25T05:51:30.637Z,2.97
2019-05-25T05:52:40.022Z,2.20
2019-05-25T05:53:47.405Z,2.27
2019-05-25T05:54:53.508Z,2.30
2019-05-25T05:55:58.764Z,2.10
2019-05-25T05:57:12.146Z,2.23
2019-05-25T05:58:11.507Z,2.30
2019-05-25T05:59:17.276Z,2.20
2019-05-25T06:00:23.259Z,2.50
2019-05-25T06:01:29.323Z,1.90
2019-05-25T06:02:34.419Z,2.27
2019-05-25T06:03:40.513Z,2.10
2019-05-25T06:04:45.511Z,2.10
2019-05-25T06:05:51.536Z,1.93
2019-05-25T06:06:57.017Z,2.00
2019-05-25T06:08:03.136Z,2.17
2019-05-25T06:09:08.546Z,2.00
2019-05-25T06:10:14.675Z,3.60
2019-05-25T06:11:20.378Z,1.97
2019-05-25T06:12:26.380Z,1.90
2019-05-25T06:13:31.666Z,2.37
2019-05-25T06:14:37.715Z,1.70
2019-05-25T06:15:43.352Z,2.00
2019-05-25T06:16:49.317Z,1.63
2019-05-25T06:17:54.324Z,1.80
2019-05-25T06:18:59.853Z,2.63
2019-05-25T06:20:05.964Z,2.03
2019-05-25T06:21:11.984Z,1.70
2019-05-25T06:22:17.303Z,2.00
2019-05-25T06:23:22.814Z,1.93
2019-05-25T06:24:27.546Z,1.70
2019-05-25T06:25:32.918Z,1.70
2019-05-25T06:26:37.732Z,1.70
2019-05-25T06:27:43.093Z,1.70
2019-05-25T06:28:47.837Z,1.80
2019-05-25T06:29:53.225Z,1.80
2019-05-25T06:30:58.052Z,2.00
2019-05-25T06:32:03.393Z,1.53
2019-05-25T06:33:08.230Z,1.83
2019-05-25T06:34:13.597Z,1.60
2019-05-25T06:35:19.171Z,1.57
2019-05-25T06:36:24.584Z,1.73
2019-05-25T06:37:29.499Z,1.77
2019-05-25T06:38:34.941Z,1.80
2019-05-25T06:39:39.717Z,1.70
2019-05-25T06:40:45.090Z,1.97
2019-05-25T06:41:49.900Z,1.83
2019-05-25T06:42:55.349Z,3.30
2019-05-25T06:44:00.163Z,2.07
2019-05-25T06:45:06.027Z,1.57
2019-05-25T06:46:10.831Z,1.80
2019-05-25T06:47:16.369Z,1.90
2019-05-25T06:48:21.230Z,1.60
2019-05-25T06:49:26.592Z,1.90
2019-05-25T06:50:31.406Z,2.57
2019-05-25T06:51:36.795Z,2.23
2019-05-25T06:52:41.579Z,1.90
2019-05-25T06:53:46.987Z,2.20
2019-05-25T06:54:51.803Z,2.23
2019-05-25T06:55:57.189Z,2.00
2019-05-25T06:57:02.055Z,2.13
2019-05-25T06:58:07.492Z,1.70
2019-05-25T06:59:12.556Z,1.90
2019-05-25T07:00:18.243Z,1.93
2019-05-25T07:01:23.050Z,1.70
2019-05-25T07:02:28.395Z,1.70
2019-05-25T07:03:33.231Z,1.57
2019-05-25T07:04:38.601Z,1.63
2019-05-25T07:05:43.624Z,1.70
2019-05-25T07:06:49.059Z,1.90
2019-05-25T07:07:54.725Z,2.30
2019-05-25T07:09:01.262Z,1.80
2019-05-25T07:10:06.796Z,1.97
2019-05-25T07:11:12.283Z,1.80
2019-05-25T07:12:17.187Z,1.70
2019-05-25T07:13:22.503Z,1.70
2019-05-25T07:14:27.502Z,2.10
2019-05-25T07:15:32.816Z,1.87
2019-05-25T07:16:37.634Z,1.90
2019-05-25T07:17:43.039Z,1.80
2019-05-25T07:18:47.796Z,1.87
2019-05-25T07:19:53.259Z,2.10
2019-05-25T07:20:58.074Z,2.07
2019-05-25T07:22:03.460Z,2.00
2019-05-25T07:23:08.395Z,1.80
2019-05-25T07:24:13.805Z,1.80
2019-05-25T07:25:20.311Z,1.83
2019-05-25T07:26:26.038Z,2.07
2019-05-25T07:27:31.119Z,2.30
2019-05-25T07:28:36.503Z,2.10
2019-05-25T07:29:41.310Z,2.37
2019-05-25T07:30:46.849Z,2.00
2019-05-25T07:31:51.765Z,1.93
2019-05-25T07:32:57.467Z,2.00
2019-05-25T07:34:02.227Z,2.10
2019-05-25T07:35:08.112Z,1.97
2019-05-25T07:36:13.047Z,2.30
2019-05-25T07:37:18.401Z,2.10
2019-05-25T07:38:23.197Z,2.80
2019-05-25T07:39:28.575Z,1.80
2019-05-25T07:40:33.372Z,1.90
2019-05-25T07:41:38.905Z,2.00
2019-05-25T07:42:43.926Z,3.00
2019-05-25T07:43:49.403Z,1.93
2019-05-25T07:44:54.432Z,2.13
2019-05-25T07:45:59.879Z,2.20
2019-05-25T07:47:04.849Z,1.77
2019-05-25T07:48:10.335Z,1.97
2019-05-25T07:49:15.325Z,1.80
2019-05-25T07:50:21.202Z,1.63
2019-05-25T07:51:26.046Z,2.80
2019-05-25T07:52:31.713Z,2.10
2019-05-25T07:53:36.617Z,2.03
2019-05-25T07:54:42.136Z,2.03
2019-05-25T07:55:46.993Z,2.13
2019-05-25T07:56:52.520Z,1.90
2019-05-25T07:57:57.355Z,2.23
2019-05-25T07:59:02.764Z,2.03
2019-05-25T08:00:07.891Z,2.20
2019-05-25T08:01:13.323Z,2.43
2019-05-25T08:02:18.280Z,2.20
2019-05-25T08:03:23.717Z,1.90
2019-05-25T08:04:28.616Z,2.20
2019-05-25T08:05:34.121Z,2.50
2019-05-25T08:06:39.064Z,1.90
2019-05-25T08:07:44.472Z,2.10
2019-05-25T08:08:49.952Z,2.20
2019-05-25T08:09:55.353Z,2.23
2019-05-25T08:11:00.234Z,1.93
2019-05-25T08:12:05.850Z,2.00
2019-05-25T08:13:10.727Z,2.33
2019-05-25T08:14:16.152Z,2.60
2019-05-25T08:15:21.276Z,2.40
2019-05-25T08:16:26.887Z,2.67
2019-05-25T08:17:31.803Z,2.20
2019-05-25T08:18:37.249Z,2.17
2019-05-25T08:19:42.107Z,2.93
2019-05-25T08:20:47.643Z,2.30
2019-05-25T08:21:52.795Z,2.10
2019-05-25T08:22:58.338Z,2.10
2019-05-25T08:24:03.299Z,2.20
2019-05-25T08:25:09.747Z,2.00
2019-05-25T08:26:14.703Z,2.00
2019-05-25T08:27:20.277Z,2.00
2019-05-25T08:28:32.787Z,2.10
2019-05-25T08:29:32.415Z,2.10
2019-05-25T08:30:37.283Z,1.90
2019-05-25T08:31:42.836Z,2.40
2019-05-25T08:32:47.723Z,2.10
2019-05-25T08:33:53.201Z,2.40
2019-05-25T08:34:58.118Z,2.23
2019-05-25T08:36:03.569Z,1.90
2019-05-25T08:37:08.604Z,2.40
2019-05-25T08:38:14.288Z,2.30
2019-05-25T08:39:19.195Z,2.03
2019-05-25T08:40:24.991Z,2.23
2019-05-25T08:41:29.894Z,2.57
2019-05-25T08:42:35.604Z,2.13
2019-05-25T08:43:40.683Z,2.00
2019-05-25T08:44:46.199Z,2.27
2019-05-25T08:45:51.325Z,2.27
2019-05-25T08:46:56.793Z,2.37
2019-05-25T08:48:01.734Z,2.00
2019-05-25T08:49:07.156Z,2.40
2019-05-25T08:50:12.014Z,2.87
2019-05-25T08:51:17.489Z,2.20
2019-05-25T08:52:22.446Z,1.90
2019-05-25T08:53:40.471Z,2.10
2019-05-25T08:54:34.436Z,2.10
2019-05-25T08:55:39.844Z,2.40
2019-05-25T08:56:44.837Z,2.20
2019-05-25T08:57:50.356Z,2.10
2019-05-25T08:58:55.724Z,1.70
2019-05-25T09:00:01.681Z,2.27
2019-05-25T09:01:06.737Z,2.10
2019-05-25T09:02:12.198Z,1.93
2019-05-25T09:03:17.425Z,2.07
2019-05-25T09:04:25.551Z,2.17
2019-05-25T09:05:29.378Z,2.20
2019-05-25T09:06:34.880Z,2.80
2019-05-25T09:07:39.800Z,2.30
2019-05-25T09:08:45.362Z,2.37
2019-05-25T09:09:50.296Z,3.03
2019-05-25T09:10:55.809Z,2.70
2019-05-25T09:12:02.463Z,2.47
2019-05-25T09:13:08.205Z,2.03
2019-05-25T09:14:13.158Z,2.33
2019-05-25T09:15:19.557Z,2.40
2019-05-25T09:16:24.452Z,3.37
2019-05-25T09:17:30.083Z,3.10
2019-05-25T09:18:35.212Z,2.10
2019-05-25T09:19:40.679Z,2.13
2019-05-25T09:20:45.604Z,2.13
2019-05-25T09:22:02.103Z,1.93
2019-05-25T09:22:57.584Z,2.17
2019-05-25T09:24:03.179Z,2.40
2019-05-25T09:25:09.151Z,2.47
2019-05-25T09:26:14.594Z,2.67
2019-05-25T09:27:19.459Z,2.43
2019-05-25T09:28:24.962Z,1.87
2019-05-25T09:29:29.786Z,2.90
2019-05-25T09:30:35.462Z,2.97
2019-05-25T09:31:40.344Z,2.13
2019-05-25T09:32:45.870Z,3.00
2019-05-25T09:33:50.882Z,2.57
2019-05-25T09:34:56.342Z,2.37
2019-05-25T09:36:01.429Z,3.20
2019-05-25T09:37:06.901Z,2.10
2019-05-25T09:38:11.833Z,2.57
2019-05-25T09:39:17.427Z,2.10
2019-05-25T09:40:22.498Z,2.40
2019-05-25T09:41:27.945Z,1.93
2019-05-25T09:42:32.907Z,2.30
2019-05-25T09:43:38.384Z,2.97
2019-05-25T09:44:43.846Z,2.30
2019-05-25T09:45:49.462Z,2.57
2019-05-25T09:46:54.475Z,2.40
2019-05-25T09:48:00.019Z,2.80
2019-05-25T09:49:05.023Z,2.20
2019-05-25T09:50:11.199Z,2.30
2019-05-25T09:51:16.074Z,2.43
2019-05-25T09:52:21.743Z,2.73
2019-05-25T09:53:26.659Z,3.17
2019-05-25T09:54:32.122Z,3.13
2019-05-25T09:55:36.864Z,2.60
2019-05-25T09:56:42.263Z,2.20
2019-05-25T09:57:47.080Z,2.03
2019-05-25T09:58:52.525Z,2.10
2019-05-25T09:59:57.507Z,2.10
2019-05-25T10:01:06.149Z,2.07
2019-05-25T10:02:11.063Z,2.70
2019-05-25T10:03:16.448Z,2.50
2019-05-25T10:04:21.242Z,2.13
2019-05-25T10:05:26.741Z,2.40
2019-05-25T10:06:31.781Z,2.40
2019-05-25T10:07:37.715Z,2.37
2019-05-25T10:08:42.504Z,2.50
2019-05-25T10:09:47.903Z,2.67
2019-05-25T10:10:52.750Z,2.27
2019-05-25T10:11:58.206Z,2.10
2019-05-25T10:13:03.120Z,2.53
2019-05-25T10:14:08.436Z,2.20
2019-05-25T10:15:13.373Z,2.03
2019-05-25T10:16:18.820Z,1.80
2019-05-25T10:17:23.692Z,2.10
2019-05-25T10:18:29.040Z,2.40
2019-05-25T10:19:33.797Z,1.90
2019-05-25T10:20:39.174Z,1.77
2019-05-25T10:21:43.933Z,2.07
2019-05-25T10:22:49.389Z,2.27
2019-05-25T10:23:54.195Z,2.07
2019-05-25T10:24:59.653Z,2.53
2019-05-25T10:26:04.622Z,2.33
2019-05-25T10:27:10.115Z,2.30
2019-05-25T10:28:14.993Z,2.30
2019-05-25T10:29:35.975Z,2.50
2019-05-25T10:30:27.148Z,2.13
2019-05-25T10:31:32.743Z,2.20
2019-05-25T10:32:37.662Z,2.00
2019-05-25T10:33:43.185Z,2.57
2019-05-25T10:34:48.075Z,2.40
2019-05-25T10:35:53.535Z,3.37
2019-05-25T10:36:58.631Z,2.93
2019-05-25T10:38:04.375Z,1.93
2019-05-25T10:39:10.013Z,2.10
2019-05-25T10:40:15.747Z,4.23
2019-05-25T10:41:20.620Z,1.90
2019-05-25T10:42:26.014Z,2.37
2019-05-25T10:43:30.846Z,2.53
2019-05-25T10:44:36.245Z,1.90
2019-05-25T10:45:41.141Z,1.80
2019-05-25T10:46:46.656Z,2.20
2019-05-25T10:47:51.488Z,2.00
2019-05-25T10:48:56.926Z,2.87
2019-05-25T10:50:01.770Z,2.43
2019-05-25T10:51:07.415Z,2.60
2019-05-25T10:52:12.244Z,2.20
2019-05-25T10:53:17.812Z,2.00
2019-05-25T10:54:22.726Z,2.10
2019-05-25T10:55:28.194Z,1.93
2019-05-25T10:56:33.029Z,1.70
2019-05-25T10:57:38.536Z,1.60
2019-05-25T10:58:43.501Z,2.10
2019-05-25T10:59:52.766Z,2.37
2019-05-25T11:00:55.369Z,2.03
2019-05-25T11:02:00.941Z,2.20
2019-05-25T11:03:06.084Z,1.97
2019-05-25T11:04:11.644Z,2.50
2019-05-25T11:05:17.252Z,1.90
2019-05-25T11:06:22.652Z,2.10
2019-05-25T11:07:27.650Z,2.30
2019-05-25T11:08:33.127Z,2.10
2019-05-25T11:09:37.870Z,2.20
2019-05-25T11:10:43.238Z,2.13
2019-05-25T11:11:48.036Z,2.03
2019-05-25T11:12:53.602Z,1.90
2019-05-25T11:13:58.416Z,2.00
2019-05-25T11:15:03.890Z,1.97
2019-05-25T11:16:08.739Z,1.90
2019-05-25T11:17:14.184Z,1.90
2019-05-25T11:18:18.960Z,2.20
2019-05-25T11:19:24.568Z,1.93
2019-05-25T11:20:29.523Z,1.87
2019-05-25T11:21:34.989Z,2.67
2019-05-25T11:22:39.825Z,2.27
2019-05-25T11:23:45.347Z,2.07
2019-05-25T11:24:50.196Z,2.43
2019-05-25T11:25:55.590Z,2.07
2019-05-25T11:27:00.378Z,2.27
2019-05-25T11:28:08.308Z,2.63
2019-05-25T11:29:12.349Z,1.90
2019-05-25T11:30:18.051Z,2.33
2019-05-25T11:31:22.931Z,1.80
2019-05-25T11:32:28.337Z,1.70
2019-05-25T11:33:36.285Z,1.80
2019-05-25T11:34:40.166Z,1.90
2019-05-25T11:35:45.633Z,1.70
2019-05-25T11:36:51.026Z,2.03
2019-05-25T11:37:55.822Z,1.70
2019-05-25T11:39:01.229Z,1.80
2019-05-25T11:40:06.843Z,1.70
2019-05-25T11:41:12.397Z,2.63
2019-05-25T11:42:17.109Z,2.53
2019-05-25T11:43:22.497Z,2.20
2019-05-25T11:44:27.297Z,2.10
2019-05-25T11:45:32.711Z,2.20
2019-05-25T11:46:37.416Z,2.13
2019-05-25T11:47:42.789Z,2.10
2019-05-25T11:48:47.580Z,2.30
2019-05-25T11:49:52.931Z,2.10
2019-05-25T11:50:57.848Z,2.50
2019-05-25T11:52:03.263Z,1.63
2019-05-25T11:53:08.136Z,1.80
2019-05-25T11:54:13.757Z,1.90
2019-05-25T11:55:19.380Z,2.17
2019-05-25T11:56:24.755Z,1.90
2019-05-25T11:57:29.670Z,2.40
2019-05-25T11:58:47.114Z,2.07
2019-05-25T11:59:41.449Z,1.60
2019-05-25T12:00:46.926Z,1.63
2019-05-25T12:01:51.721Z,2.10
2019-05-25T12:02:57.336Z,1.80
2019-05-25T12:04:02.145Z,1.57
2019-05-25T12:05:08.337Z,1.80
2019-05-25T12:06:13.144Z,1.70
2019-05-25T12:07:18.510Z,1.97
2019-05-25T12:08:23.287Z,1.80
2019-05-25T12:09:28.693Z,2.10
2019-05-25T12:10:33.470Z,1.80
2019-05-25T12:11:38.826Z,2.00
2019-05-25T12:12:43.722Z,2.00
2019-05-25T12:13:49.109Z,1.80
2019-05-25T12:14:53.813Z,1.97
2019-05-25T12:15:59.157Z,1.80
2019-05-25T12:17:04.008Z,2.50
2019-05-25T12:18:09.547Z,1.97
2019-05-25T12:19:15.125Z,2.00
2019-05-25T12:20:21.181Z,1.70
2019-05-25T12:21:25.932Z,1.77
2019-05-25T12:22:31.275Z,1.70
2019-05-25T12:23:36.093Z,1.70
2019-05-25T12:24:41.470Z,1.73
2019-05-25T12:25:46.439Z,1.87
2019-05-25T12:26:51.791Z,1.60
2019-05-25T12:27:57.312Z,2.17
2019-05-25T12:29:02.718Z,2.00
2019-05-25T12:30:08.364Z,2.03
2019-05-25T12:31:13.801Z,1.70
2019-05-25T12:32:18.560Z,1.77
2019-05-25T12:33:23.930Z,2.00
2019-05-25T12:34:28.729Z,2.27
2019-05-25T12:35:34.092Z,2.00
2019-05-25T12:36:38.958Z,1.67
2019-05-25T12:37:44.491Z,2.37
2019-05-25T12:38:49.299Z,2.00
2019-05-25T12:39:54.701Z,2.00
2019-05-25T12:40:59.525Z,1.70
2019-05-25T12:42:05.226Z,2.10
2019-05-25T12:43:10.020Z,2.07
2019-05-25T12:44:15.438Z,2.07
2019-05-25T12:45:21.929Z,1.73
2019-05-25T12:46:27.349Z,1.90
2019-05-25T12:47:32.149Z,2.00
2019-05-25T12:48:37.503Z,2.13
2019-05-25T12:49:50.512Z,1.77
2019-05-25T12:50:49.281Z,1.80
2019-05-25T12:51:54.049Z,2.30
2019-05-25T12:52:59.409Z,2.00
2019-05-25T12:54:04.288Z,2.00
2019-05-25T12:55:12.313Z,2.33
2019-05-25T12:56:17.199Z,1.97
2019-05-25T12:57:24.246Z,2.00
2019-05-25T12:58:28.974Z,1.50
2019-05-25T12:59:34.402Z,2.10
2019-05-25T13:00:39.268Z,2.30
2019-05-25T13:01:44.611Z,2.20
2019-05-25T13:02:49.427Z,2.03
2019-05-25T13:03:54.778Z,2.30
2019-05-25T13:04:59.614Z,1.93
2019-05-25T13:06:05.052Z,1.87
2019-05-25T13:07:10.024Z,2.53
2019-05-25T13:08:15.380Z,1.80
2019-05-25T13:09:20.182Z,1.90
2019-05-25T13:10:25.701Z,2.20
2019-05-25T13:11:30.521Z,1.87
2019-05-25T13:12:35.868Z,2.40
2019-05-25T13:13:40.648Z,2.10
2019-05-25T13:14:46.184Z,1.90
2019-05-25T13:15:50.985Z,1.70
2019-05-25T13:16:56.386Z,2.00
2019-05-25T13:18:01.171Z,1.97
2019-05-25T13:19:06.629Z,1.87
2019-05-25T13:20:12.248Z,1.77
2019-05-25T13:21:17.795Z,2.00
2019-05-25T13:22:22.583Z,1.90
2019-05-25T13:23:28.062Z,2.13
2019-05-25T13:24:32.958Z,2.00
2019-05-25T13:25:38.318Z,1.83
2019-05-25T13:26:43.077Z,2.20
2019-05-25T13:27:48.448Z,1.80
2019-05-25T13:28:53.220Z,2.00
2019-05-25T13:29:58.590Z,1.70
2019-05-25T13:31:11.616Z,2.10
2019-05-25T13:32:10.452Z,1.80
2019-05-25T13:33:15.246Z,2.00
2019-05-25T13:34:20.595Z,2.03
2019-05-25T13:35:25.448Z,2.23
2019-05-25T13:36:30.820Z,4.87
2019-05-25T13:37:35.675Z,2.23
2019-05-25T13:38:41.075Z,2.17
2019-05-25T13:39:45.861Z,2.13
2019-05-25T13:40:51.288Z,1.90
2019-05-25T13:41:56.040Z,1.90
2019-05-25T13:43:01.439Z,1.80
2019-05-25T13:44:06.240Z,2.00
2019-05-25T13:45:11.994Z,1.83
2019-05-25T13:46:16.946Z,2.10
2019-05-25T13:47:22.449Z,2.20
2019-05-25T13:48:27.216Z,1.70
2019-05-25T13:49:32.621Z,1.80
2019-05-25T13:50:37.416Z,2.17
2019-05-25T13:51:42.828Z,2.30
2019-05-25T13:52:47.626Z,1.90
2019-05-25T13:53:53.106Z,2.20
2019-05-25T13:54:58.017Z,2.07
2019-05-25T13:56:03.448Z,1.83
2019-05-25T13:57:08.355Z,2.03
2019-05-25T13:58:13.731Z,2.60
2019-05-25T13:59:18.720Z,1.77
2019-05-25T14:00:24.530Z,2.13
2019-05-25T14:01:29.599Z,1.70
2019-05-25T14:02:35.071Z,2.00
2019-05-25T14:03:40.022Z,2.30
2019-05-25T14:04:45.536Z,1.93
2019-05-25T14:05:51.198Z,2.10
2019-05-25T14:06:56.735Z,2.27
2019-05-25T14:08:01.668Z,2.17
2019-05-25T14:09:08.567Z,2.03
2019-05-25T14:10:13.470Z,2.50
2019-05-25T14:11:18.849Z,2.00
2019-05-25T14:12:23.671Z,2.00
2019-05-25T14:13:29.081Z,2.17
2019-05-25T14:14:33.940Z,2.20
2019-05-25T14:15:39.453Z,1.93
2019-05-25T14:16:44.268Z,1.90
2019-05-25T14:17:49.742Z,1.87
2019-05-25T14:18:54.679Z,1.87
2019-05-25T14:20:00.284Z,1.90
2019-05-25T14:21:05.422Z,1.80
2019-05-25T14:22:10.997Z,2.00
2019-05-25T14:23:15.950Z,2.00
2019-05-25T14:24:21.623Z,1.93
2019-05-25T14:25:27.016Z,2.33
2019-05-25T14:26:32.449Z,2.20
2019-05-25T14:27:37.370Z,1.80
2019-05-25T14:28:42.811Z,2.47
2019-05-25T14:29:47.792Z,2.23